^^
Grace C. Lehan Memorial Weather Station Historical Data
Daily Summary for June 25, 2022 Units:  Both    English   Metric
Daily Weekly Monthly Yearly
  High: Low: Average:
Temperature: 91.3 °F /  32.9 °C 63.7 °F /  17.6 °C 78.6 °F /  25.9 °C
Dew Point: 68.3 °F /  20.2 °C 61.4 °F /  16.3 °C 64.7 °F /  18.2 °C
Humidity: 95% 38.9% 66%
Wind Speed: 3mph /  4.8km/h - 0.2mph /  0.3km/h
Wind Gust: 8mph /  12.9km/h - -
Wind- - SW
Pressure: 30.07 in /  1018.2 hPa 29.99 in /  1015.5 hPa -
Precipitation: 0.00 in /  0 mm    
 
 
Tabular Data for June 25, 2022
Time Temperature Dew Point Pressure Wind Wind Speed Wind Gust Humidity Rainfall Rate (Hourly) solar
00:09 70.3 °F /  21.3 °C 66 °F /  18.9 °C 30.00in /  1015.8hPa Calm     86% 0.00in /  0mm 0 W/m2
00:14 70.2 °F /  21.2 °C 65.9 °F /  18.8 °C 30.00in /  1015.8hPa Calm     86% 0.00in /  0mm 0 W/m2
00:19 70.1 °F /  21.2 °C 65.8 °F /  18.8 °C 30.00in /  1015.8hPa Calm     86.3% 0.00in /  0mm 0 W/m2
00:24 69.9 °F /  21.1 °C 65.6 °F /  18.7 °C 30.00in /  1015.8hPa Calm     86% 0.00in /  0mm 0 W/m2
00:29 69.8 °F /  21 °C 65.8 °F /  18.8 °C 30.00in /  1015.8hPa Calm     87% 0.00in /  0mm 0 W/m2
00:34 69.7 °F /  20.9 °C 65.6 °F /  18.7 °C 30.00in /  1015.8hPa Calm     87% 0.00in /  0mm 0 W/m2
00:39 69.5 °F /  20.8 °C 65.5 °F /  18.6 °C 30.00in /  1015.8hPa Calm     87% 0.00in /  0mm 0 W/m2
00:44 69.4 °F /  20.8 °C 65.6 °F /  18.7 °C 30.00in /  1015.8hPa Calm     87.8% 0.00in /  0mm 0 W/m2
00:49 69.3 °F /  20.7 °C 65.6 °F /  18.7 °C 30.00in /  1015.8hPa Calm     88% 0.00in /  0mm 0 W/m2
00:54 69.2 °F /  20.7 °C 65.5 °F /  18.6 °C 30.00in /  1015.8hPa Calm     88% 0.00in /  0mm 0 W/m2
00:59 69.2 °F /  20.7 °C 65.5 °F /  18.6 °C 30.00in /  1015.8hPa Calm     88% 0.00in /  0mm 0 W/m2
01:04 69.2 °F /  20.7 °C 65.8 °F /  18.8 °C 30.00in /  1015.8hPa Calm     89% 0.00in /  0mm 0 W/m2
01:09 69.1 °F /  20.6 °C 65.7 °F /  18.7 °C 30.00in /  1015.8hPa Calm     89% 0.00in /  0mm 0 W/m2
01:14 69 °F /  20.6 °C 65.6 °F /  18.7 °C 30.00in /  1015.8hPa Calm     89% 0.00in /  0mm 0 W/m2
01:19 68.9 °F /  20.5 °C 65.5 °F /  18.6 °C 30.00in /  1015.8hPa Calm     89% 0.00in /  0mm 0 W/m2
01:24 68.8 °F /  20.4 °C 65.4 °F /  18.6 °C 30.00in /  1015.8hPa Calm     89% 0.00in /  0mm 0 W/m2
01:29 68.7 °F /  20.4 °C 65.3 °F /  18.5 °C 30.00in /  1015.8hPa Calm     89% 0.00in /  0mm 0 W/m2
01:34 68.5 °F /  20.3 °C 65.2 °F /  18.4 °C 30.00in /  1015.8hPa Calm     89% 0.00in /  0mm 0 W/m2
01:39 68.4 °F /  20.2 °C 65.1 °F /  18.4 °C 30.00in /  1015.8hPa Calm     89% 0.00in /  0mm 0 W/m2
01:44 68.3 °F /  20.2 °C 65 °F /  18.3 °C 30.00in /  1015.8hPa Calm     89.1% 0.00in /  0mm 0 W/m2
01:49 68.2 °F /  20.1 °C 65 °F /  18.3 °C 30.00in /  1015.8hPa Calm     89.7% 0.00in /  0mm 0 W/m2
01:54 68.1 °F /  20.1 °C 65 °F /  18.3 °C 30.00in /  1015.8hPa Calm     90% 0.00in /  0mm 0 W/m2
01:59 68 °F /  20 °C 65 °F /  18.3 °C 30.00in /  1015.8hPa Calm     90% 0.00in /  0mm 0 W/m2
02:04 67.9 °F /  19.9 °C 64.9 °F /  18.3 °C 30.00in /  1015.8hPa Calm     90% 0.00in /  0mm 0 W/m2
02:09 67.8 °F /  19.9 °C 64.8 °F /  18.2 °C 30.00in /  1015.8hPa Calm     90% 0.00in /  0mm 0 W/m2
02:14 67.8 °F /  19.9 °C 65 °F /  18.3 °C 30.00in /  1015.8hPa Calm     90.7% 0.00in /  0mm 0 W/m2
02:19 67.7 °F /  19.8 °C 65 °F /  18.3 °C 29.99in /  1015.5hPa Calm     91% 0.00in /  0mm 0 W/m2
02:24 67.6 °F /  19.8 °C 64.9 °F /  18.3 °C 29.99in /  1015.5hPa Calm     91% 0.00in /  0mm 0 W/m2
02:29 67.5 °F /  19.7 °C 64.8 °F /  18.2 °C 29.99in /  1015.5hPa Calm     91% 0.00in /  0mm 0 W/m2
02:34 67.4 °F /  19.7 °C 64.7 °F /  18.2 °C 29.99in /  1015.5hPa Calm     91% 0.00in /  0mm 0 W/m2
02:39 67.4 °F /  19.7 °C 64.7 °F /  18.2 °C 29.99in /  1015.5hPa Calm     91% 0.00in /  0mm 0 W/m2
02:44 67.3 °F /  19.6 °C 64.6 °F /  18.1 °C 29.99in /  1015.5hPa Calm     91% 0.00in /  0mm 0 W/m2
02:49 67.2 °F /  19.6 °C 64.5 °F /  18.1 °C 29.99in /  1015.5hPa Calm     91% 0.00in /  0mm 0 W/m2
02:54 67.1 °F /  19.5 °C 64.4 °F /  18 °C 29.99in /  1015.5hPa Calm     91% 0.00in /  0mm 0 W/m2
02:59 67 °F /  19.4 °C 64.4 °F /  18 °C 29.99in /  1015.5hPa Calm     91.5% 0.00in /  0mm 0 W/m2
03:04 66.9 °F /  19.4 °C 64.2 °F /  17.9 °C 29.99in /  1015.5hPa Calm     91% 0.00in /  0mm 0 W/m2
03:09 66.8 °F /  19.3 °C 64.3 °F /  17.9 °C 30.00in /  1015.8hPa Calm     91.7% 0.00in /  0mm 0 W/m2
03:14 66.7 °F /  19.3 °C 64.3 °F /  17.9 °C 30.00in /  1015.8hPa Calm     92% 0.00in /  0mm 0 W/m2
03:19 66.6 °F /  19.2 °C 64.2 °F /  17.9 °C 29.99in /  1015.5hPa Calm     92% 0.00in /  0mm 0 W/m2
03:24 66.5 °F /  19.2 °C 64.1 °F /  17.8 °C 30.00in /  1015.8hPa Calm     92% 0.00in /  0mm 0 W/m2
03:29 66.3 °F /  19.1 °C 63.9 °F /  17.7 °C 30.00in /  1015.8hPa Calm     92% 0.00in /  0mm 0 W/m2
03:34 66.2 °F /  19 °C 63.8 °F /  17.7 °C 30.00in /  1015.8hPa Calm     92% 0.00in /  0mm 0 W/m2
03:39 66.1 °F /  18.9 °C 63.7 °F /  17.6 °C 30.00in /  1015.8hPa Calm     92% 0.00in /  0mm 0 W/m2
03:44 65.9 °F /  18.8 °C 63.6 °F /  17.6 °C 30.00in /  1015.8hPa Calm     92% 0.00in /  0mm 0 W/m2
03:49 65.8 °F /  18.8 °C 63.4 °F /  17.4 °C 30.00in /  1015.8hPa Calm     92% 0.00in /  0mm 0 W/m2
03:54 65.7 °F /  18.7 °C 63.3 °F /  17.4 °C 30.01in /  1016.1hPa Calm     92% 0.00in /  0mm 0 W/m2
03:59 65.6 °F /  18.7 °C 63.2 °F /  17.3 °C 30.01in /  1016.1hPa Calm     92% 0.00in /  0mm 0 W/m2
04:00 65.5 °F /  18.6 °C 63.1 °F /  17.3 °C 30.01in /  1016.1hPa Calm     92% 0.00in /  0mm 0 W/m2
04:09 65.4 °F /  18.6 °C 63 °F /  17.2 °C 30.01in /  1016.1hPa Calm     92% 0.00in /  0mm 0 W/m2
04:14 65.4 °F /  18.6 °C 63 °F /  17.2 °C 30.01in /  1016.1hPa Calm     92% 0.00in /  0mm 0 W/m2
04:19 65.3 °F /  18.5 °C 62.9 °F /  17.2 °C 30.01in /  1016.1hPa Calm     92% 0.00in /  0mm 0 W/m2
04:24 65.2 °F /  18.4 °C 62.8 °F /  17.1 °C 30.01in /  1016.1hPa Calm     92% 0.00in /  0mm 0 W/m2
04:29 65 °F /  18.3 °C 62.6 °F /  17 °C 30.02in /  1016.5hPa Calm     92% 0.00in /  0mm 0 W/m2
04:34 64.8 °F /  18.2 °C 62.5 °F /  16.9 °C 30.02in /  1016.5hPa Calm     92% 0.00in /  0mm 0 W/m2
04:39 64.7 °F /  18.2 °C 62.3 °F /  16.8 °C 30.02in /  1016.5hPa Calm     92% 0.00in /  0mm 0 W/m2
04:44 64.6 °F /  18.1 °C 62.4 °F /  16.9 °C 30.02in /  1016.5hPa Calm     92.7% 0.00in /  0mm 0 W/m2
04:49 64.5 °F /  18.1 °C 62.4 °F /  16.9 °C 30.03in /  1016.8hPa Calm     93% 0.00in /  0mm 0 W/m2
04:54 64.4 °F /  18 °C 62.4 °F /  16.9 °C 30.03in /  1016.8hPa Calm     93% 0.00in /  0mm 0 W/m2
04:59 64.3 °F /  17.9 °C 62.3 °F /  16.8 °C 30.03in /  1016.8hPa Calm     93% 0.00in /  0mm 0 W/m2
05:04 64.3 °F /  17.9 °C 62.2 °F /  16.8 °C 30.03in /  1016.8hPa Calm     93% 0.00in /  0mm 0 W/m2
05:09 64.2 °F /  17.9 °C 62.1 °F /  16.7 °C 30.03in /  1016.8hPa Calm     93% 0.00in /  0mm 0 W/m2
05:14 64.2 °F /  17.9 °C 62.1 °F /  16.7 °C 30.03in /  1016.8hPa Calm     93% 0.00in /  0mm 0 W/m2
05:19 64.2 °F /  17.9 °C 62.1 °F /  16.7 °C 30.03in /  1016.8hPa Calm     93% 0.00in /  0mm 0 W/m2
05:24 64.1 °F /  17.8 °C 62.1 °F /  16.7 °C 30.03in /  1016.8hPa Calm     93% 0.00in /  0mm 5 W/m2
05:29 64.1 °F /  17.8 °C 62 °F /  16.7 °C 30.04in /  1017.2hPa Calm     93% 0.00in /  0mm 7 W/m2
05:34 64 °F /  17.8 °C 61.9 °F /  16.6 °C 30.04in /  1017.2hPa Calm     93% 0.00in /  0mm 9 W/m2
05:39 63.9 °F /  17.7 °C 61.8 °F /  16.6 °C 30.04in /  1017.2hPa Calm     93% 0.00in /  0mm 12 W/m2
05:44 63.9 °F /  17.7 °C 61.9 °F /  16.6 °C 30.05in /  1017.5hPa Calm     93.3% 0.00in /  0mm 14 W/m2
05:49 63.9 °F /  17.7 °C 61.8 °F /  16.6 °C 30.05in /  1017.5hPa Calm     93% 0.00in /  0mm 18 W/m2
05:54 63.8 °F /  17.7 °C 61.8 °F /  16.6 °C 30.05in /  1017.5hPa Calm     93% 0.00in /  0mm 21 W/m2
05:59 63.8 °F /  17.7 °C 61.7 °F /  16.5 °C 30.05in /  1017.5hPa Calm     93% 0.00in /  0mm 25 W/m2
06:04 63.7 °F /  17.6 °C 61.9 °F /  16.6 °C 30.05in /  1017.5hPa Calm     93.7% 0.00in /  0mm 25 W/m2
06:09 63.8 °F /  17.7 °C 62 °F /  16.7 °C 30.05in /  1017.5hPa Calm     94% 0.00in /  0mm 25 W/m2
06:14 63.8 °F /  17.7 °C 62.1 °F /  16.7 °C 30.05in /  1017.5hPa Calm     94% 0.00in /  0mm 39 W/m2
06:19 63.9 °F /  17.7 °C 62.2 °F /  16.8 °C 30.06in /  1017.8hPa Calm     94% 0.00in /  0mm 39 W/m2
06:24 64.1 °F /  17.8 °C 62.3 °F /  16.8 °C 30.06in /  1017.8hPa Calm     94% 0.00in /  0mm 30 W/m2
06:29 64.3 °F /  17.9 °C 62.5 °F /  16.9 °C 30.06in /  1017.8hPa Calm     94% 0.00in /  0mm 40 W/m2
06:34 64.5 °F /  18.1 °C 62.7 °F /  17.1 °C 30.06in /  1017.8hPa Calm     94% 0.00in /  0mm 51 W/m2
06:39 64.7 °F /  18.2 °C 63.1 °F /  17.3 °C 30.06in /  1017.8hPa Calm     94.5% 0.00in /  0mm 116 W/m2
06:44 65 °F /  18.3 °C 63.6 °F /  17.6 °C 30.06in /  1017.8hPa Calm     95% 0.00in /  0mm 185 W/m2
06:49 65.5 °F /  18.6 °C 64.1 °F /  17.8 °C 30.06in /  1017.8hPa Calm     95% 0.00in /  0mm 214 W/m2
06:54 66.2 °F /  19 °C 64.7 °F /  18.2 °C 30.06in /  1017.8hPa Calm     95% 0.00in /  0mm 234 W/m2
06:59 66.7 °F /  19.3 °C 65.2 °F /  18.4 °C 30.06in /  1017.8hPa Calm     95% 0.00in /  0mm 246 W/m2
07:04 67.4 °F /  19.7 °C 65.8 °F /  18.8 °C 30.06in /  1017.8hPa Calm   2mph /  3.2km/h 94.8% 0.00in /  0mm 262 W/m2
07:09 68.2 °F /  20.1 °C 66.2 °F /  19 °C 30.06in /  1017.8hPa Calm   2mph /  3.2km/h 93.3% 0.00in /  0mm 285 W/m2
07:14 68.9 °F /  20.5 °C 65.9 °F /  18.8 °C 30.06in /  1017.8hPa Calm   2mph /  3.2km/h 90.1% 0.00in /  0mm 304 W/m2
07:19 69.8 °F /  21 °C 65.9 °F /  18.8 °C 30.06in /  1017.8hPa Calm   2mph /  3.2km/h 87.3% 0.00in /  0mm 325 W/m2
07:24 70.7 °F /  21.5 °C 65.9 °F /  18.8 °C 30.06in /  1017.8hPa Calm   2mph /  3.2km/h 84.7% 0.00in /  0mm 341 W/m2
07:29 71.6 °F /  22 °C 66.2 °F /  19 °C 30.06in /  1017.8hPa Calm   2mph /  3.2km/h 82.9% 0.00in /  0mm 359 W/m2
07:34 72.4 °F /  22.4 °C 65.8 °F /  18.8 °C 30.06in /  1017.8hPa Calm   2mph /  3.2km/h 79.9% 0.00in /  0mm 374 W/m2
07:39 73.1 °F /  22.8 °C 66 °F /  18.9 °C 30.06in /  1017.8hPa North 0.3mph /  0.5km/h 4mph /  6.4km/h 78.6% 0.00in /  0mm 392 W/m2
07:44 73.5 °F /  23.1 °C 65.3 °F /  18.5 °C 30.06in /  1017.8hPa NE 0.2mph /  0.3km/h 4mph /  6.4km/h 75.5% 0.00in /  0mm 410 W/m2
07:49 74 °F /  23.3 °C 65.8 °F /  18.8 °C 30.06in /  1017.8hPa Calm   4mph /  6.4km/h 75.7% 0.00in /  0mm 425 W/m2
07:54 74.6 °F /  23.7 °C 66 °F /  18.9 °C 30.06in /  1017.8hPa NE 0.1mph /  0.2km/h 4mph /  6.4km/h 74.5% 0.00in /  0mm 439 W/m2
07:59 75.2 °F /  24 °C 66.1 °F /  18.9 °C 30.07in /  1018.2hPa NE 0.1mph /  0.2km/h 4mph /  6.4km/h 73.2% 0.00in /  0mm 459 W/m2
08:09 76.3 °F /  24.6 °C 66.5 °F /  19.2 °C 30.07in /  1018.2hPa NE 0.3mph /  0.5km/h 5mph /  8km/h 71.5% 0.00in /  0mm 487 W/m2
08:14 76.8 °F /  24.9 °C 67 °F /  19.4 °C 30.07in /  1018.2hPa NE 0.2mph /  0.3km/h 5mph /  8km/h 71.7% 0.00in /  0mm 503 W/m2
08:19 77.2 °F /  25.1 °C 66.8 °F /  19.3 °C 30.07in /  1018.2hPa NNE 0.2mph /  0.3km/h 5mph /  8km/h 70.2% 0.00in /  0mm 519 W/m2
08:24 77.6 °F /  25.3 °C 67.2 °F /  19.6 °C 30.07in /  1018.2hPa Calm   5mph /  8km/h 70.4% 0.00in /  0mm 534 W/m2
08:29 77.9 °F /  25.5 °C 66.8 °F /  19.3 °C 30.07in /  1018.2hPa North 0.3mph /  0.5km/h 5mph /  8km/h 68.8% 0.00in /  0mm 550 W/m2
08:34 78.2 °F /  25.7 °C 66.8 °F /  19.3 °C 30.07in /  1018.2hPa Calm   5mph /  8km/h 68% 0.00in /  0mm 566 W/m2
08:39 78.4 °F /  25.8 °C 66.3 °F /  19.1 °C 30.07in /  1018.2hPa NW 0.8mph /  1.3km/h 5mph /  8km/h 66.5% 0.00in /  0mm 578 W/m2
08:44 78.7 °F /  25.9 °C 65.9 °F /  18.8 °C 30.07in /  1018.2hPa NW 0.8mph /  1.3km/h 5mph /  8km/h 65% 0.00in /  0mm 589 W/m2
08:49 78.9 °F /  26.1 °C 65.9 °F /  18.8 °C 30.07in /  1018.2hPa NW 0.3mph /  0.5km/h 5mph /  8km/h 64.5% 0.00in /  0mm 603 W/m2
08:54 79.1 °F /  26.2 °C 66.5 °F /  19.2 °C 30.07in /  1018.2hPa NW 0.3mph /  0.5km/h 5mph /  8km/h 65.3% 0.00in /  0mm 624 W/m2
08:59 79.5 °F /  26.4 °C 66.5 °F /  19.2 °C 30.07in /  1018.2hPa NW 0.1mph /  0.2km/h 5mph /  8km/h 64.5% 0.00in /  0mm 640 W/m2
09:04 79.9 °F /  26.6 °C 67 °F /  19.4 °C 30.07in /  1018.2hPa Calm   5mph /  8km/h 64.8% 0.00in /  0mm 652 W/m2
09:09 80.2 °F /  26.8 °C 67.1 °F /  19.5 °C 30.07in /  1018.2hPa Calm     64.2% 0.00in /  0mm 664 W/m2
09:14 80.3 °F /  26.8 °C 66.6 °F /  19.2 °C 30.07in /  1018.2hPa Calm     63.1% 0.00in /  0mm 679 W/m2
09:19 80.3 °F /  26.8 °C 66.6 °F /  19.2 °C 30.07in /  1018.2hPa Calm     63% 0.00in /  0mm 693 W/m2
09:24 80.6 °F /  27 °C 67.4 °F /  19.7 °C 30.07in /  1018.2hPa NW 0.3mph /  0.5km/h 3mph /  4.8km/h 64.1% 0.00in /  0mm 703 W/m2
09:29 81.2 °F /  27.3 °C 67.8 °F /  19.9 °C 30.07in /  1018.2hPa NW 0.4mph /  0.6km/h 4mph /  6.4km/h 63.8% 0.00in /  0mm 715 W/m2
09:34 81.7 °F /  27.6 °C 68 °F /  20 °C 30.07in /  1018.2hPa Calm   4mph /  6.4km/h 63.2% 0.00in /  0mm 731 W/m2
09:39 82.2 °F /  27.9 °C 68 °F /  20 °C 30.07in /  1018.2hPa NW 0.5mph /  0.8km/h 3mph /  4.8km/h 62.3% 0.00in /  0mm 744 W/m2
09:44 82.6 °F /  28.1 °C 67.8 °F /  19.9 °C 30.07in /  1018.2hPa Calm   3mph /  4.8km/h 61.1% 0.00in /  0mm 758 W/m2
09:49 82.9 °F /  28.3 °C 68.3 °F /  20.2 °C 30.07in /  1018.2hPa Calm   3mph /  4.8km/h 61.4% 0.00in /  0mm 768 W/m2
09:54 83.2 °F /  28.4 °C 67.5 °F /  19.7 °C 30.07in /  1018.2hPa Calm   3mph /  4.8km/h 59.2% 0.00in /  0mm 779 W/m2
09:59 83.5 °F /  28.6 °C 68 °F /  20 °C 30.07in /  1018.2hPa Calm   3mph /  4.8km/h 59.6% 0.00in /  0mm 791 W/m2
10:04 84 °F /  28.9 °C 68.1 °F /  20.1 °C 30.06in /  1017.8hPa NW 0.2mph /  0.3km/h 3mph /  4.8km/h 59% 0.00in /  0mm 802 W/m2
10:09 84 °F /  28.9 °C 67.7 °F /  19.8 °C 30.06in /  1017.8hPa Calm   3mph /  4.8km/h 58% 0.00in /  0mm 812 W/m2
10:13 84 °F /  28.9 °C 67.1 °F /  19.5 °C 30.06in /  1017.8hPa Calm   3mph /  4.8km/h 56.9% 0.00in /  0mm 819 W/m2
10:30 84.3 °F /  29.1 °C 67.4 °F /  19.7 °C 30.06in /  1017.8hPa Calm   3mph /  4.8km/h 57% 0.00in /  0mm 823 W/m2
11:00 87 °F /  30.6 °C 67.8 °F /  19.9 °C 30.06in /  1017.8hPa Calm   3mph /  4.8km/h 53% 0.00in /  0mm 878 W/m2
11:30 87.6 °F /  30.9 °C 65.5 °F /  18.6 °C 30.06in /  1017.8hPa Calm   6mph /  9.7km/h 48% 0.00in /  0mm 923 W/m2
12:04 88.1 °F /  31.2 °C 66 °F /  18.9 °C 30.06in /  1017.8hPa NW 2.8mph /  4.5km/h 6mph /  9.7km/h 48% 0.00in /  0mm 965 W/m2
12:09 88.1 °F /  31.2 °C 65.6 °F /  18.7 °C 30.06in /  1017.8hPa WNW 1.6mph /  2.6km/h 7mph /  11.3km/h 47.3% 0.00in /  0mm 969 W/m2
12:14 87.9 °F /  31.1 °C 66.1 °F /  18.9 °C 30.06in /  1017.8hPa WNW 0.2mph /  0.3km/h 7mph /  11.3km/h 48.4% 0.00in /  0mm 977 W/m2
12:19 87.9 °F /  31.1 °C 66.5 °F /  19.2 °C 30.06in /  1017.8hPa NW 1.1mph /  1.8km/h 7mph /  11.3km/h 49.2% 0.00in /  0mm 977 W/m2
12:24 87.8 °F /  31 °C 66.2 °F /  19 °C 30.06in /  1017.8hPa NW 0.1mph /  0.2km/h 7mph /  11.3km/h 48.9% 0.00in /  0mm 976 W/m2
12:29 87.7 °F /  30.9 °C 66.4 °F /  19.1 °C 30.06in /  1017.8hPa NW 0.5mph /  0.8km/h 7mph /  11.3km/h 49.3% 0.00in /  0mm 981 W/m2
12:34 87.8 °F /  31 °C 66.2 °F /  19 °C 30.06in /  1017.8hPa WNW 0.2mph /  0.3km/h 7mph /  11.3km/h 48.9% 0.00in /  0mm 979 W/m2
12:39 88 °F /  31.1 °C 68 °F /  20 °C 30.06in /  1017.8hPa WNW 0.5mph /  0.8km/h 7mph /  11.3km/h 51.8% 0.00in /  0mm 981 W/m2
12:44 88.3 °F /  31.3 °C 66.2 °F /  19 °C 30.06in /  1017.8hPa NW 1.2mph /  1.9km/h 8mph /  12.9km/h 48.1% 0.00in /  0mm 984 W/m2
12:49 88.4 °F /  31.3 °C 65.6 °F /  18.7 °C 30.06in /  1017.8hPa North 0.4mph /  0.6km/h 8mph /  12.9km/h 47% 0.00in /  0mm 986 W/m2
12:54 88.5 °F /  31.4 °C 66.3 °F /  19.1 °C 30.06in /  1017.8hPa NNE 0.2mph /  0.3km/h 8mph /  12.9km/h 48.1% 0.00in /  0mm 986 W/m2
12:59 88.5 °F /  31.4 °C 66.1 °F /  18.9 °C 30.06in /  1017.8hPa ENE 1mph /  1.6km/h 8mph /  12.9km/h 47.5% 0.00in /  0mm 986 W/m2
13:04 88.5 °F /  31.4 °C 66.7 °F /  19.3 °C 30.06in /  1017.8hPa NNE 0.5mph /  0.8km/h 8mph /  12.9km/h 48.6% 0.00in /  0mm 981 W/m2
13:09 88.6 °F /  31.4 °C 66.9 °F /  19.4 °C 30.06in /  1017.8hPa NNW 0.7mph /  1.1km/h 5mph /  8km/h 48.9% 0.00in /  0mm 986 W/m2
13:14 88.7 °F /  31.5 °C 66.4 °F /  19.1 °C 30.06in /  1017.8hPa Calm   5mph /  8km/h 47.8% 0.00in /  0mm 983 W/m2
13:19 88.7 °F /  31.5 °C 66.7 °F /  19.3 °C 30.06in /  1017.8hPa NNW 0.4mph /  0.6km/h 5mph /  8km/h 48.3% 0.00in /  0mm 983 W/m2
13:24 88.8 °F /  31.6 °C 66.4 °F /  19.1 °C 30.06in /  1017.8hPa NE 0.4mph /  0.6km/h 5mph /  8km/h 47.8% 0.00in /  0mm 988 W/m2
13:29 88.9 °F /  31.6 °C 66.3 °F /  19.1 °C 30.06in /  1017.8hPa NE 0.2mph /  0.3km/h 5mph /  8km/h 47.4% 0.00in /  0mm 977 W/m2
13:34 89.1 °F /  31.7 °C 66.5 °F /  19.2 °C 30.06in /  1017.8hPa North 1.1mph /  1.8km/h 6mph /  9.7km/h 47.6% 0.00in /  0mm 983 W/m2
13:39 88.8 °F /  31.6 °C 65.7 °F /  18.7 °C 30.06in /  1017.8hPa NW 1.1mph /  1.8km/h 7mph /  11.3km/h 46.4% 0.00in /  0mm 974 W/m2
13:44 88.8 °F /  31.6 °C 65.5 °F /  18.6 °C 30.06in /  1017.8hPa NNW 0.7mph /  1.1km/h 7mph /  11.3km/h 46.2% 0.00in /  0mm 974 W/m2
13:49 88.6 °F /  31.4 °C 65.1 °F /  18.4 °C 30.06in /  1017.8hPa Calm   7mph /  11.3km/h 45.9% 0.00in /  0mm 970 W/m2
13:54 88.6 °F /  31.4 °C 64.1 °F /  17.8 °C 30.06in /  1017.8hPa ENE 1.3mph /  2.1km/h 7mph /  11.3km/h 44.2% 0.00in /  0mm 963 W/m2
13:59 88.7 °F /  31.5 °C 64.3 °F /  17.9 °C 30.06in /  1017.8hPa East 2mph /  3.2km/h 7mph /  11.3km/h 44.5% 0.00in /  0mm 958 W/m2
14:04 88.6 °F /  31.4 °C 65.3 °F /  18.5 °C 30.06in /  1017.8hPa ENE 0.2mph /  0.3km/h 7mph /  11.3km/h 46.1% 0.00in /  0mm 949 W/m2
14:09 88.8 °F /  31.6 °C 66.4 °F /  19.1 °C 30.05in /  1017.5hPa NW 0.8mph /  1.3km/h 5mph /  8km/h 47.6% 0.00in /  0mm 949 W/m2
14:14 89 °F /  31.7 °C 65.3 °F /  18.5 °C 30.05in /  1017.5hPa NNE 0.5mph /  0.8km/h 5mph /  8km/h 45.5% 0.00in /  0mm 942 W/m2
14:19 89.1 °F /  31.7 °C 65.2 °F /  18.4 °C 30.05in /  1017.5hPa NE 0.1mph /  0.2km/h 5mph /  8km/h 45.4% 0.00in /  0mm 937 W/m2
14:24 89.3 °F /  31.8 °C 65.3 °F /  18.5 °C 30.05in /  1017.5hPa WNW 1.4mph /  2.3km/h 7mph /  11.3km/h 45.3% 0.00in /  0mm 933 W/m2
14:29 89.3 °F /  31.8 °C 64.9 °F /  18.3 °C 30.05in /  1017.5hPa WNW 0.2mph /  0.3km/h 7mph /  11.3km/h 44.5% 0.00in /  0mm 932 W/m2
14:34 89.6 °F /  32 °C 65.6 °F /  18.7 °C 30.05in /  1017.5hPa WNW 1mph /  1.6km/h 7mph /  11.3km/h 45.2% 0.00in /  0mm 921 W/m2
14:39 89.7 °F /  32.1 °C 65 °F /  18.3 °C 30.04in /  1017.2hPa WNW 1.8mph /  2.9km/h 6mph /  9.7km/h 44.1% 0.00in /  0mm 916 W/m2
14:44 90 °F /  32.2 °C 66.4 °F /  19.1 °C 30.04in /  1017.2hPa West 1.2mph /  1.9km/h 6mph /  9.7km/h 46% 0.00in /  0mm 911 W/m2
14:49 90.1 °F /  32.3 °C 65.2 °F /  18.4 °C 30.04in /  1017.2hPa West 2.7mph /  4.3km/h 7mph /  11.3km/h 43.9% 0.00in /  0mm 900 W/m2
14:54 90.1 °F /  32.3 °C 65.9 °F /  18.8 °C 30.03in /  1016.8hPa West 0.1mph /  0.2km/h 7mph /  11.3km/h 45.1% 0.00in /  0mm 891 W/m2
14:59 90.2 °F /  32.3 °C 66 °F /  18.9 °C 30.03in /  1016.8hPa WNW 2.5mph /  4km/h 7mph /  11.3km/h 45% 0.00in /  0mm 884 W/m2
15:04 90.2 °F /  32.3 °C 65.4 °F /  18.6 °C 30.03in /  1016.8hPa WNW 0.3mph /  0.5km/h 7mph /  11.3km/h 44.1% 0.00in /  0mm 875 W/m2
15:09 90.4 °F /  32.4 °C 64.3 °F /  17.9 °C 30.03in /  1016.8hPa WNW 0.1mph /  0.2km/h 2mph /  3.2km/h 42.1% 0.00in /  0mm 867 W/m2
15:14 90.6 °F /  32.6 °C 64.2 °F /  17.9 °C 30.03in /  1016.8hPa NNE 1.2mph /  1.9km/h 6mph /  9.7km/h 41.7% 0.00in /  0mm 858 W/m2
15:19 90.7 °F /  32.6 °C 63.5 °F /  17.5 °C 30.03in /  1016.8hPa NE 1.7mph /  2.7km/h 6mph /  9.7km/h 40.6% 0.00in /  0mm 849 W/m2
15:24 90.6 °F /  32.6 °C 63 °F /  17.2 °C 30.03in /  1016.8hPa ENE 1.5mph /  2.4km/h 6mph /  9.7km/h 39.9% 0.00in /  0mm 835 W/m2
15:29 90.7 °F /  32.6 °C 62.9 °F /  17.2 °C 30.03in /  1016.8hPa Calm   6mph /  9.7km/h 39.8% 0.00in /  0mm 823 W/m2
15:34 90.7 °F /  32.6 °C 63.1 °F /  17.3 °C 30.03in /  1016.8hPa Calm   6mph /  9.7km/h 40% 0.00in /  0mm 810 W/m2
15:39 90.6 °F /  32.6 °C 63.7 °F /  17.6 °C 30.03in /  1016.8hPa Calm     40.9% 0.00in /  0mm 802 W/m2
15:44 90.7 °F /  32.6 °C 62.7 °F /  17.1 °C 30.02in /  1016.5hPa Calm     39.5% 0.00in /  0mm 793 W/m2
15:49 90.8 °F /  32.7 °C 62.5 °F /  16.9 °C 30.02in /  1016.5hPa Calm   1mph /  1.6km/h 39% 0.00in /  0mm 780 W/m2
15:54 90.8 °F /  32.7 °C 62.5 °F /  16.9 °C 30.02in /  1016.5hPa ENE 0.1mph /  0.2km/h 2mph /  3.2km/h 39.2% 0.00in /  0mm 772 W/m2
15:59 90.8 °F /  32.7 °C 64.3 °F /  17.9 °C 30.02in /  1016.5hPa ENE 0.3mph /  0.5km/h 2mph /  3.2km/h 41.6% 0.00in /  0mm 759 W/m2
16:04 91.1 °F /  32.8 °C 63.4 °F /  17.4 °C 30.02in /  1016.5hPa ENE 3mph /  4.8km/h 3mph /  4.8km/h 40% 0.00in /  0mm 733 W/m2
16:09 91.2 °F /  32.9 °C 64.7 °F /  18.2 °C 30.02in /  1016.5hPa ENE 0.4mph /  0.6km/h 3mph /  4.8km/h 41.7% 0.00in /  0mm 733 W/m2
16:14 91.3 °F /  32.9 °C 64.7 °F /  18.2 °C 30.02in /  1016.5hPa NE 0.2mph /  0.3km/h 3mph /  4.8km/h 41.5% 0.00in /  0mm 721 W/m2
16:19 91.3 °F /  32.9 °C 63 °F /  17.2 °C 30.02in /  1016.5hPa NE 0.1mph /  0.2km/h 3mph /  4.8km/h 39.2% 0.00in /  0mm 714 W/m2
16:24 91.1 °F /  32.8 °C 63.9 °F /  17.7 °C 30.02in /  1016.5hPa Calm   3mph /  4.8km/h 40.7% 0.00in /  0mm 56 W/m2
16:29 90.9 °F /  32.7 °C 63.1 °F /  17.3 °C 30.02in /  1016.5hPa Calm   3mph /  4.8km/h 39.8% 0.00in /  0mm 56 W/m2
16:34 90.8 °F /  32.7 °C 62.8 °F /  17.1 °C 30.02in /  1016.5hPa Calm   3mph /  4.8km/h 39.5% 0.00in /  0mm 56 W/m2
16:39 90.5 °F /  32.5 °C 62.3 °F /  16.8 °C 30.03in /  1016.8hPa Calm     39.1% 0.00in /  0mm 54 W/m2
16:44 90 °F /  32.2 °C 61.7 °F /  16.5 °C 30.03in /  1016.8hPa Calm     38.9% 0.00in /  0mm 54 W/m2
16:49 89.5 °F /  31.9 °C 61.4 °F /  16.3 °C 30.03in /  1016.8hPa Calm     39.1% 0.00in /  0mm 53 W/m2
16:54 89.2 °F /  31.8 °C 62.3 °F /  16.8 °C 30.03in /  1016.8hPa Calm     40.8% 0.00in /  0mm 53 W/m2
16:59 89 °F /  31.7 °C 63.9 °F /  17.7 °C 30.03in /  1016.8hPa NW 0.5mph /  0.8km/h 5mph /  8km/h 43.4% 0.00in /  0mm 51 W/m2
17:04 89 °F /  31.7 °C 64.2 °F /  17.9 °C 30.03in /  1016.8hPa WNW 1.4mph /  2.3km/h 5mph /  8km/h 43.8% 0.00in /  0mm 51 W/m2
17:09 89.2 °F /  31.8 °C 63.6 °F /  17.6 °C 30.02in /  1016.5hPa West 1.3mph /  2.1km/h 6mph /  9.7km/h 42.8% 0.00in /  0mm 49 W/m2
17:14 89.2 °F /  31.8 °C 63.3 °F /  17.4 °C 30.02in /  1016.5hPa West 0.2mph /  0.3km/h 6mph /  9.7km/h 42.2% 0.00in /  0mm 49 W/m2
17:19 89.3 °F /  31.8 °C 63.7 °F /  17.6 °C 30.03in /  1016.8hPa West 1.4mph /  2.3km/h 7mph /  11.3km/h 42.7% 0.00in /  0mm 49 W/m2
17:24 89.2 °F /  31.8 °C 62.8 °F /  17.1 °C 30.03in /  1016.8hPa West 1.2mph /  1.9km/h 7mph /  11.3km/h 41.5% 0.00in /  0mm 47 W/m2
17:29 89.1 °F /  31.7 °C 61.8 °F /  16.6 °C 30.02in /  1016.5hPa West 1.2mph /  1.9km/h 7mph /  11.3km/h 40.1% 0.00in /  0mm 47 W/m2
17:34 89.1 °F /  31.7 °C 62.4 °F /  16.9 °C 30.03in /  1016.8hPa WNW 1.1mph /  1.8km/h 7mph /  11.3km/h 41.1% 0.00in /  0mm 46 W/m2
17:39 89.1 °F /  31.7 °C 62.7 °F /  17.1 °C 30.02in /  1016.5hPa WNW 0.4mph /  0.6km/h 6mph /  9.7km/h 41.5% 0.00in /  0mm 46 W/m2
17:44 89.1 °F /  31.7 °C 62.8 °F /  17.1 °C 30.02in /  1016.5hPa WNW 0.6mph /  1km/h 6mph /  9.7km/h 41.7% 0.00in /  0mm 44 W/m2
17:49 88.9 °F /  31.6 °C 62.6 °F /  17 °C 30.02in /  1016.5hPa WNW 0.2mph /  0.3km/h 6mph /  9.7km/h 41.6% 0.00in /  0mm 44 W/m2
17:54 88.9 °F /  31.6 °C 62.9 °F /  17.2 °C 30.02in /  1016.5hPa WNW 1.3mph /  2.1km/h 6mph /  9.7km/h 42.1% 0.00in /  0mm 42 W/m2
17:59 88.9 °F /  31.6 °C 62.8 °F /  17.1 °C 30.02in /  1016.5hPa WNW 0.4mph /  0.6km/h 6mph /  9.7km/h 41.9% 0.00in /  0mm 42 W/m2
18:04 88.9 °F /  31.6 °C 62.6 °F /  17 °C 30.02in /  1016.5hPa WNW 0.1mph /  0.2km/h 6mph /  9.7km/h 41.7% 0.00in /  0mm 42 W/m2
18:09 88.7 °F /  31.5 °C 62.3 °F /  16.8 °C 30.02in /  1016.5hPa WNW 0.1mph /  0.2km/h 2mph /  3.2km/h 41.4% 0.00in /  0mm 40 W/m2
18:14 88.6 °F /  31.4 °C 62.3 °F /  16.8 °C 30.02in /  1016.5hPa Calm   2mph /  3.2km/h 41.7% 0.00in /  0mm 40 W/m2
18:19 88.5 °F /  31.4 °C 63.5 °F /  17.5 °C 30.03in /  1016.8hPa Calm   2mph /  3.2km/h 43.5% 0.00in /  0mm 40 W/m2
18:24 88.4 °F /  31.3 °C 63.2 °F /  17.3 °C 30.02in /  1016.5hPa Calm   2mph /  3.2km/h 43.2% 0.00in /  0mm 39 W/m2
18:29 88.3 °F /  31.3 °C 62.5 °F /  16.9 °C 30.02in /  1016.5hPa Calm   2mph /  3.2km/h 42.3% 0.00in /  0mm 39 W/m2
18:34 88.2 °F /  31.2 °C 61.9 °F /  16.6 °C 30.02in /  1016.5hPa Calm   2mph /  3.2km/h 41.5% 0.00in /  0mm 37 W/m2
18:39 88.1 °F /  31.2 °C 62.7 °F /  17.1 °C 30.02in /  1016.5hPa Calm     42.8% 0.00in /  0mm 37 W/m2
18:44 88.1 °F /  31.2 °C 63.4 °F /  17.4 °C 30.02in /  1016.5hPa Calm     43.8% 0.00in /  0mm 37 W/m2
18:49 88 °F /  31.1 °C 63.4 °F /  17.4 °C 30.02in /  1016.5hPa Calm     43.9% 0.00in /  0mm 35 W/m2
18:54 87.9 °F /  31.1 °C 62.5 °F /  16.9 °C 30.02in /  1016.5hPa Calm     42.8% 0.00in /  0mm 33 W/m2
18:59 87.8 °F /  31 °C 61.8 °F /  16.6 °C 30.02in /  1016.5hPa Calm     41.9% 0.00in /  0mm 33 W/m2
19:04 87.7 °F /  30.9 °C 61.9 °F /  16.6 °C 30.02in /  1016.5hPa Calm     42.2% 0.00in /  0mm 32 W/m2
19:09 87.6 °F /  30.9 °C 62.3 °F /  16.8 °C 30.02in /  1016.5hPa Calm     42.8% 0.00in /  0mm 32 W/m2
19:14 87.6 °F /  30.9 °C 62.3 °F /  16.8 °C 30.03in /  1016.8hPa Calm     43% 0.00in /  0mm 30 W/m2
19:19 87.5 °F /  30.8 °C 62.4 °F /  16.9 °C 30.03in /  1016.8hPa Calm     43.2% 0.00in /  0mm 28 W/m2
19:24 87.3 °F /  30.7 °C 62.3 °F /  16.8 °C 30.03in /  1016.8hPa Calm     43.3% 0.00in /  0mm 28 W/m2
19:29 87.2 °F /  30.7 °C 62.6 °F /  17 °C 30.02in /  1016.5hPa Calm     44% 0.00in /  0mm 26 W/m2
19:34 87 °F /  30.6 °C 62.8 °F /  17.1 °C 30.02in /  1016.5hPa Calm     44.6% 0.00in /  0mm 25 W/m2
19:39 86.8 °F /  30.4 °C 62.9 °F /  17.2 °C 30.03in /  1016.8hPa Calm     45% 0.00in /  0mm 25 W/m2
19:44 86.5 °F /  30.3 °C 63.1 °F /  17.3 °C 30.03in /  1016.8hPa Calm     45.7% 0.00in /  0mm 23 W/m2
19:49 86.3 °F /  30.2 °C 64.3 °F /  17.9 °C 30.03in /  1016.8hPa Calm     48% 0.00in /  0mm 21 W/m2
19:54 86 °F /  30 °C 65.6 °F /  18.7 °C 30.03in /  1016.8hPa Calm     50.5% 0.00in /  0mm 18 W/m2
19:59 85.7 °F /  29.8 °C 66.6 °F /  19.2 °C 30.03in /  1016.8hPa Calm     52.9% 0.00in /  0mm 16 W/m2
20:04 85.2 °F /  29.6 °C 66.7 °F /  19.3 °C 30.03in /  1016.8hPa Calm     54% 0.00in /  0mm 11 W/m2
20:09 85.1 °F /  29.5 °C 67.1 °F /  19.5 °C 30.03in /  1016.8hPa Calm     54.9% 0.00in /  0mm 11 W/m2
20:14 84.8 °F /  29.3 °C 67.3 °F /  19.6 °C 30.03in /  1016.8hPa Calm     55.9% 0.00in /  0mm 9 W/m2
20:19 84.4 °F /  29.1 °C 67 °F /  19.4 °C 30.03in /  1016.8hPa Calm     56% 0.00in /  0mm 5 W/m2
20:24 84.1 °F /  28.9 °C 67.2 °F /  19.6 °C 30.03in /  1016.8hPa Calm     57% 0.00in /  0mm 0 W/m2
20:29 83.8 °F /  28.8 °C 66.9 °F /  19.4 °C 30.03in /  1016.8hPa Calm     57% 0.00in /  0mm 0 W/m2
20:34 83.4 °F /  28.6 °C 66.8 °F /  19.3 °C 30.03in /  1016.8hPa Calm     57.3% 0.00in /  0mm 0 W/m2
20:39 83.1 °F /  28.4 °C 66.8 °F /  19.3 °C 30.03in /  1016.8hPa Calm     58% 0.00in /  0mm 0 W/m2
20:44 82.8 °F /  28.2 °C 66.8 °F /  19.3 °C 30.03in /  1016.8hPa Calm     58.4% 0.00in /  0mm 0 W/m2
20:49 82.5 °F /  28.1 °C 66.8 °F /  19.3 °C 30.04in /  1017.2hPa Calm     59% 0.00in /  0mm 0 W/m2
20:54 82.2 °F /  27.9 °C 66.5 °F /  19.2 °C 30.04in /  1017.2hPa Calm     59% 0.00in /  0mm 0 W/m2
20:59 81.9 °F /  27.7 °C 66.6 °F /  19.2 °C 30.04in /  1017.2hPa Calm     59.8% 0.00in /  0mm 0 W/m2
21:04 81.6 °F /  27.6 °C 66.3 °F /  19.1 °C 30.04in /  1017.2hPa Calm     59.8% 0.00in /  0mm 0 W/m2
21:09 81.3 °F /  27.4 °C 66.1 °F /  18.9 °C 30.04in /  1017.2hPa Calm     60% 0.00in /  0mm 0 W/m2
21:14 81.1 °F /  27.3 °C 66.1 °F /  18.9 °C 30.04in /  1017.2hPa Calm     60.4% 0.00in /  0mm 0 W/m2
21:19 80.8 °F /  27.1 °C 65.9 °F /  18.8 °C 30.04in /  1017.2hPa Calm     60.5% 0.00in /  0mm 0 W/m2
21:24 80.5 °F /  26.9 °C 65.8 °F /  18.8 °C 30.05in /  1017.5hPa Calm     61% 0.00in /  0mm 0 W/m2
21:29 80.3 °F /  26.8 °C 65.8 °F /  18.8 °C 30.05in /  1017.5hPa Calm     61.5% 0.00in /  0mm 0 W/m2
21:34 80 °F /  26.7 °C 65.7 °F /  18.7 °C 30.05in /  1017.5hPa Calm     61.8% 0.00in /  0mm 0 W/m2
21:39 79.7 °F /  26.5 °C 65.6 °F /  18.7 °C 30.05in /  1017.5hPa Calm     62% 0.00in /  0mm 0 W/m2
21:44 79.5 °F /  26.4 °C 65.4 °F /  18.6 °C 30.05in /  1017.5hPa Calm     62.2% 0.00in /  0mm 0 W/m2
21:49 79.2 °F /  26.2 °C 65.5 °F /  18.6 °C 30.05in /  1017.5hPa Calm     63% 0.00in /  0mm 0 W/m2
21:54 79 °F /  26.1 °C 65.3 °F /  18.5 °C 30.05in /  1017.5hPa Calm     63% 0.00in /  0mm 0 W/m2
21:59 78.7 °F /  25.9 °C 65.5 °F /  18.6 °C 30.05in /  1017.5hPa Calm     64% 0.00in /  0mm 0 W/m2
22:04 78.5 °F /  25.8 °C 65.6 °F /  18.7 °C 30.05in /  1017.5hPa Calm     64.5% 0.00in /  0mm 0 W/m2
22:09 78.2 °F /  25.7 °C 65.7 °F /  18.7 °C 30.05in /  1017.5hPa Calm     65.3% 0.00in /  0mm 0 W/m2
22:14 77.9 °F /  25.5 °C 65.7 °F /  18.7 °C 30.05in /  1017.5hPa Calm     66% 0.00in /  0mm 0 W/m2
22:19 77.7 °F /  25.4 °C 65.7 °F /  18.7 °C 30.05in /  1017.5hPa Calm     66.7% 0.00in /  0mm 0 W/m2
22:24 77.4 °F /  25.2 °C 65.6 °F /  18.7 °C 30.06in /  1017.8hPa Calm     67% 0.00in /  0mm 0 W/m2
22:29 77.2 °F /  25.1 °C 65.4 °F /  18.6 °C 30.06in /  1017.8hPa Calm     67% 0.00in /  0mm 0 W/m2
22:34 77 °F /  25 °C 65.2 °F /  18.4 °C 30.06in /  1017.8hPa Calm     67% 0.00in /  0mm 0 W/m2
22:39 76.8 °F /  24.9 °C 65 °F /  18.3 °C 30.06in /  1017.8hPa Calm     67% 0.00in /  0mm 0 W/m2
22:44 76.6 °F /  24.8 °C 64.9 °F /  18.3 °C 30.06in /  1017.8hPa Calm     67% 0.00in /  0mm 0 W/m2
22:49 76.5 °F /  24.7 °C 64.7 °F /  18.2 °C 30.06in /  1017.8hPa Calm     67% 0.00in /  0mm 0 W/m2
22:54 76.3 °F /  24.6 °C 64.9 °F /  18.3 °C 30.06in /  1017.8hPa Calm     67.7% 0.00in /  0mm 0 W/m2
22:59 76.2 °F /  24.6 °C 64.9 °F /  18.3 °C 30.06in /  1017.8hPa Calm     68% 0.00in /  0mm 0 W/m2
23:04 76.1 °F /  24.5 °C 64.8 °F /  18.2 °C 30.06in /  1017.8hPa Calm     68% 0.00in /  0mm 0 W/m2
23:09 75.9 °F /  24.4 °C 64.6 °F /  18.1 °C 30.06in /  1017.8hPa Calm     68% 0.00in /  0mm 0 W/m2
23:14 75.7 °F /  24.3 °C 64.5 °F /  18.1 °C 30.06in /  1017.8hPa Calm     68.2% 0.00in /  0mm 0 W/m2
23:19 75.6 °F /  24.2 °C 64.7 °F /  18.2 °C 30.06in /  1017.8hPa Calm     69% 0.00in /  0mm 0 W/m2
23:24 75.4 °F /  24.1 °C 64.5 °F /  18.1 °C 30.06in /  1017.8hPa Calm     69% 0.00in /  0mm 0 W/m2
23:29 75.2 °F /  24 °C 64.7 °F /  18.2 °C 30.06in /  1017.8hPa Calm     69.9% 0.00in /  0mm 0 W/m2
23:34 75 °F /  23.9 °C 64.5 °F /  18.1 °C 30.06in /  1017.8hPa Calm     70% 0.00in /  0mm 0 W/m2
23:39 74.8 °F /  23.8 °C 64.6 °F /  18.1 °C 30.06in /  1017.8hPa Calm     70.6% 0.00in /  0mm 0 W/m2
23:44 74.6 °F /  23.7 °C 64.5 °F /  18.1 °C 30.06in /  1017.8hPa Calm     71% 0.00in /  0mm 0 W/m2
23:49 74.3 °F /  23.5 °C 64.6 °F /  18.1 °C 30.06in /  1017.8hPa Calm     71.8% 0.00in /  0mm 0 W/m2
23:54 74.1 °F /  23.4 °C 64.5 °F /  18.1 °C 30.06in /  1017.8hPa Calm     72% 0.00in /  0mm 0 W/m2
23:59 73.8 °F /  23.2 °C 64.6 °F /  18.1 °C 30.06in /  1017.8hPa Calm     72.8% 0.00in /  0mm 0 W/m2
Hartford County Weather
Compliments of Weather Underground - 4 mb